Time;durP1;ratioP1;P1;durP2;ratioP2;P2;SDS_P1;SDS_P2;PMS_P1;PMS_P2;Temp;Humidity;BMP_temperature;BMP_pressure;BME280_temperature;BME280_humidity;BME280_pressure;Samples;Min_cycle;Max_cycle;Signal;HPM_P1;HPM_P2
2023/09/14 00:00:31;;;;;;;4.33;1.97;;;17.40;72.60;;;20.23;47.24;102116.16;4936339;29;20217;-66
2023/09/14 00:03:02;;;;;;;5.10;1.77;;;17.40;72.20;;;20.22;47.12;102104.66;4936387;29;20257;-66
2023/09/14 00:05:30;;;;;;;5.00;1.90;;;17.40;72.40;;;20.27;46.99;102108.56;4936246;29;20178;-66
2023/09/14 00:07:57;;;;;;;4.63;1.73;;;17.40;72.50;;;20.31;47.18;102105.28;4936264;29;20201;-65
2023/09/14 00:10:24;;;;;;;5.50;1.63;;;17.50;72.20;;;20.36;47.32;102101.97;4935820;29;20217;-65
2023/09/14 00:12:52;;;;;;;4.60;2.10;;;17.50;72.40;;;20.41;46.70;102107.53;4936593;29;20311;-66
2023/09/14 00:15:19;;;;;;;4.70;1.80;;;17.60;71.90;;;20.46;47.04;102113.09;4940169;29;20186;-66
2023/09/14 00:17:46;;;;;;;3.17;1.60;;;17.70;71.80;;;20.48;46.24;102116.41;4940383;29;20655;-66
2023/09/14 00:20:20;;;;;;;5.77;2.27;;;17.60;71.40;;;20.47;47.04;102117.41;4939979;29;20221;-66
2023/09/14 00:22:49;;;;;;;3.97;1.97;;;17.60;71.80;;;20.50;47.01;102117.84;4939813;29;20667;-66
2023/09/14 00:25:17;;;;;;;5.40;1.73;;;17.70;71.80;;;20.52;46.54;102118.44;4921949;29;20762;-66
2023/09/14 00:27:44;;;;;;;4.70;1.97;;;17.70;71.80;;;20.55;46.67;102122.56;4939829;29;20253;-66
2023/09/14 00:30:11;;;;;;;4.63;2.17;;;17.70;71.50;;;20.56;46.36;102113.53;4939198;29;20249;-66
2023/09/14 00:32:40;;;;;;;3.93;1.50;;;17.70;71.30;;;20.59;46.62;102121.13;4940274;29;20253;-66
2023/09/14 00:35:09;;;;;;;4.90;1.73;;;17.70;71.50;;;20.67;46.46;102123.59;4939855;29;20204;-66
2023/09/14 00:37:38;;;;;;;5.53;2.23;;;17.80;72.00;;;20.75;46.42;102123.41;4939825;29;20205;-66
2023/09/14 00:40:08;;;;;;;3.90;1.80;;;17.90;71.20;;;20.80;45.65;102120.94;4923147;29;20711;-66
2023/09/14 00:42:38;;;;;;;3.07;1.90;;;17.90;70.50;;;20.81;45.63;102122.56;4921129;29;20285;-65
2023/09/14 00:45:07;;;;;;;4.27;1.90;;;18.00;70.60;;;20.85;46.06;102113.06;4929825;29;20213;-65
2023/09/14 00:47:36;;;;;;;5.90;1.83;;;18.00;70.60;;;20.91;45.70;102117.59;4937657;29;20220;-66
2023/09/14 00:50:06;;;;;;;4.77;2.10;;;18.10;70.50;;;20.97;46.04;102116.75;4935244;29;20695;-65
2023/09/14 00:52:37;;;;;;;6.53;2.30;;;18.20;70.50;;;21.04;45.52;102127.47;4939436;29;20260;-65
2023/09/14 00:55:07;;;;;;;3.30;1.80;;;18.20;70.00;;;21.08;45.61;102123.38;4939628;29;20540;-65
2023/09/14 00:57:37;;;;;;;5.03;2.77;;;18.30;70.20;;;21.13;45.42;102127.09;4932063;29;20226;-65
2023/09/14 01:00:10;;;;;;;5.70;2.33;;;18.30;70.00;;;21.18;45.13;102132.59;4928936;29;20594;-65
2023/09/14 01:02:39;;;;;;;5.10;2.60;;;18.40;69.70;;;21.19;45.07;102126.22;4939367;29;20186;-65
2023/09/14 01:05:08;;;;;;;6.03;2.30;;;18.40;69.40;;;21.21;44.83;102126.84;4939345;29;20577;-66
2023/09/14 01:07:36;;;;;;;6.03;2.13;;;18.40;69.50;;;21.22;45.24;102125.81;4939029;29;20605;-69
2023/09/14 01:10:05;;;;;;;8.10;2.53;;;18.40;69.00;;;21.21;45.17;102118.81;4938631;29;20222;-65
2023/09/14 01:12:32;;;;;;;6.00;2.30;;;18.40;69.10;;;21.21;45.08;102129.50;4938841;29;20198;-66
2023/09/14 01:15:09;;;;;;;3.90;2.33;;;18.40;69.10;;;21.14;44.75;102123.34;4939265;29;20562;-65
2023/09/14 01:17:46;;;;;;;4.70;2.40;;;18.40;68.90;;;21.07;44.76;102116.34;4939252;29;20194;-63
2023/09/14 01:20:49;;;;;;;5.77;2.20;;;18.40;69.00;;;20.98;45.52;102129.13;4938448;29;20269;-65
2023/09/14 01:23:33;;;;;;;5.13;2.47;;;18.30;69.10;;;20.97;45.36;102118.63;4914831;29;20222;-66
2023/09/14 01:26:01;;;;;;;4.47;2.03;;;18.30;68.90;;;20.93;44.76;102112.88;4938279;29;20202;-64
2023/09/14 01:28:28;;;;;;;5.70;2.33;;;18.20;68.80;;;20.85;44.85;102123.78;4938876;29;20551;-66
2023/09/14 01:30:55;;;;;;;3.10;2.03;;;18.20;69.00;;;20.80;45.25;102118.25;4938760;29;20233;-65
2023/09/14 01:33:25;;;;;;;4.70;2.40;;;18.10;69.60;;;20.77;45.49;102113.31;4938997;29;20209;-65
2023/09/14 01:36:02;;;;;;;4.77;2.40;;;18.10;69.80;;;20.74;45.87;102105.69;4938909;29;20290;-66
2023/09/14 01:38:30;;;;;;;10.33;2.63;;;18.00;70.00;;;20.73;46.04;102115.56;4926042;29;20210;-66
2023/09/14 01:40:58;;;;;;;6.07;2.53;;;18.00;70.20;;;20.75;45.76;102115.38;4919625;29;20191;-67
2023/09/14 01:43:28;;;;;;;3.67;2.10;;;18.00;70.20;;;20.76;46.28;102119.69;4919730;29;20266;-65
2023/09/14 01:45:55;;;;;;;5.27;2.33;;;18.00;70.70;;;20.78;45.70;102123.78;4935450;29;20594;-66
2023/09/14 01:48:23;;;;;;;4.60;2.10;;;18.00;70.50;;;20.81;46.20;102127.91;4938086;29;20618;-67
2023/09/14 01:50:50;;;;;;;3.67;1.80;;;18.00;70.30;;;20.83;46.05;102125.84;4938521;29;20293;-65
2023/09/14 01:53:17;;;;;;;5.90;2.30;;;18.10;70.00;;;20.85;45.87;102123.78;4938815;29;20206;-64
2023/09/14 01:55:44;;;;;;;4.57;2.10;;;18.00;69.90;;;20.83;45.62;102125.84;4938516;29;20194;-66
2023/09/14 01:58:12;;;;;;;4.93;1.80;;;18.10;69.80;;;20.79;45.76;102129.97;4926028;29;20214;-65
2023/09/14 02:00:40;;;;;;;3.40;2.10;;;18.00;70.10;;;20.78;45.52;102122.97;4919175;29;20262;-67
2023/09/14 02:03:07;;;;;;;5.60;2.10;;;18.00;69.90;;;20.74;46.19;102121.75;4919356;29;20238;-65
2023/09/14 02:05:35;;;;;;;7.40;1.90;;;18.00;70.20;;;20.75;45.63;102110.81;4919204;29;20259;-65
2023/09/14 02:08:02;;;;;;;4.20;2.07;;;17.90;69.90;;;20.76;46.14;102119.69;4919368;29;20205;-65
2023/09/14 02:10:29;;;;;;;7.80;2.93;;;17.90;70.40;;;20.76;45.66;102114.31;4932150;29;20233;-65
2023/09/14 02:12:56;;;;;;;4.23;2.03;;;17.90;69.50;;;20.74;45.02;102117.22;4938129;29;20190;-66
2023/09/14 02:15:23;;;;;;;3.63;2.00;;;17.90;69.30;;;20.68;45.11;102118.03;4938113;29;20277;-65
2023/09/14 02:17:51;;;;;;;4.67;1.90;;;17.80;69.30;;;20.61;45.58;102121.75;4938303;29;20198;-65
2023/09/14 02:20:18;;;;;;;5.20;2.67;;;17.70;69.50;;;20.55;45.93;102122.56;4937670;29;20606;-65
2023/09/14 02:22:45;;;;;;;2.93;2.07;;;17.70;70.30;;;20.53;46.31;102129.97;4937848;29;20210;-65
2023/09/14 02:25:12;;;;;;;3.50;2.17;;;17.60;70.70;;;20.57;46.04;102120.50;4937651;29;20202;-65
2023/09/14 02:27:39;;;;;;;5.40;2.30;;;17.70;70.80;;;20.59;46.36;102124.63;4937716;29;20210;-64
2023/09/14 02:30:08;;;;;;;5.73;1.90;;;17.70;71.10;;;20.64;45.95;102127.50;4937557;29;20234;-66
2023/09/14 02:32:35;;;;;;;6.20;2.40;;;17.70;70.80;;;20.68;46.05;102128.72;4934749;29;20198;-65
2023/09/14 02:35:05;;;;;;;5.20;1.93;;;17.80;70.30;;;20.69;45.29;102126.88;4918915;29;20209;-64
2023/09/14 02:37:32;;;;;;;3.37;1.73;;;17.80;70.20;;;20.69;45.88;102126.88;4917589;29;20203;-65
2023/09/14 02:39:59;;;;;;;4.63;2.30;;;17.80;70.40;;;20.71;45.31;102128.31;4927088;29;20215;-66
2023/09/14 02:42:26;;;;;;;6.20;2.37;;;17.80;70.30;;;20.73;45.48;102128.94;4918584;29;20731;-66
2023/09/14 02:44:53;;;;;;;5.13;1.80;;;17.80;70.10;;;20.71;45.19;102131.00;4926197;29;20198;-67
2023/09/14 02:47:19;;;;;;;4.83;2.60;;;17.80;70.00;;;20.70;45.22;102128.53;4937177;29;20240;-66
2023/09/14 02:49:46;;;;;;;4.53;2.07;;;17.80;70.10;;;20.68;45.42;102134.09;4917861;29;20680;-66
2023/09/14 02:52:15;;;;;;;6.33;1.83;;;17.80;70.50;;;20.68;45.62;102133.28;4918446;29;20215;-65
2023/09/14 02:54:42;;;;;;;3.10;2.03;;;17.80;70.60;;;20.68;46.15;102130.63;4930438;29;20224;-65
2023/09/14 02:57:09;;;;;;;7.77;2.27;;;17.80;70.70;;;20.70;45.87;102131.22;4937583;29;20198;-66
2023/09/14 02:59:36;;;;;;;3.70;1.97;;;17.80;70.80;;;20.72;45.54;102126.47;4936984;29;20560;-66
2023/09/14 03:02:03;;;;;;;4.70;1.77;;;17.80;70.50;;;20.72;46.00;102129.16;4937666;29;20221;-65
2023/09/14 03:04:30;;;;;;;4.23;1.70;;;17.80;70.50;;;20.70;46.12;102141.94;4937207;29;20316;-66
2023/09/14 03:06:57;;;;;;;3.87;1.80;;;17.90;70.60;;;20.72;45.96;102131.84;4937298;29;20580;-66
2023/09/14 03:09:25;;;;;;;5.77;2.00;;;17.80;70.10;;;20.70;45.84;102134.72;4936887;29;20222;-65
2023/09/14 03:11:54;;;;;;;5.30;2.00;;;17.80;70.10;;;20.68;45.24;102131.41;4937001;29;20193;-65
2023/09/14 03:14:21;;;;;;;3.17;2.03;;;17.80;69.70;;;20.68;45.81;102133.28;4936871;29;20264;-64
2023/09/14 03:16:49;;;;;;;2.87;1.90;;;17.80;70.60;;;20.67;45.29;102126.28;4936852;29;20664;-65
2023/09/14 03:19:16;;;;;;;2.43;1.63;;;17.80;69.80;;;20.63;45.36;102125.88;4922266;29;20237;-65
2023/09/14 03:21:43;;;;;;;2.73;1.60;;;17.70;69.60;;;20.61;45.07;102127.13;4923864;29;20202;-65
2023/09/14 03:24:10;;;;;;;4.27;1.80;;;17.70;69.80;;;20.56;45.13;102125.03;4937234;29;20194;-65
2023/09/14 03:26:38;;;;;;;6.07;2.03;;;17.60;69.70;;;20.51;45.25;102126.69;4924832;29;20231;-68
2023/09/14 03:29:05;;;;;;;3.87;1.90;;;17.60;69.80;;;20.44;45.17;102125.88;4917893;29;20222;-65
2023/09/14 03:31:33;;;;;;;2.63;1.37;;;17.60;69.80;;;20.41;45.66;102126.28;4918050;29;20254;-65
2023/09/14 03:34:00;;;;;;;3.30;1.50;;;17.50;70.60;;;20.44;46.26;102128.53;4917855;29;20675;-64
2023/09/14 03:36:27;;;;;;;5.53;1.80;;;17.60;70.70;;;20.47;45.50;102130.78;4930522;29;20237;-65
2023/09/14 03:38:57;;;;;;;6.80;1.93;;;17.60;70.10;;;20.47;45.88;102125.44;4936547;29;20217;-65
2023/09/14 03:41:24;;;;;;;5.03;1.80;;;17.60;70.50;;;20.50;45.75;102133.06;4936480;29;20206;-65
2023/09/14 03:43:53;;;;;;;6.87;2.00;;;17.60;69.80;;;20.51;45.86;102132.88;4936468;29;20604;-66
2023/09/14 03:46:19;;;;;;;3.67;1.70;;;17.60;70.20;;;20.55;45.79;102133.28;4936357;29;20209;-66
2023/09/14 03:48:46;;;;;;;5.33;1.63;;;17.70;69.70;;;20.53;45.10;102140.69;4938919;29;20214;-65
2023/09/14 03:51:14;;;;;;;3.30;1.60;;;17.70;69.50;;;20.53;45.10;102141.53;4940780;29;20228;-65
2023/09/14 03:53:41;;;;;;;3.60;1.70;;;17.70;69.50;;;20.58;45.17;102133.69;4940623;29;20193;-65
2023/09/14 03:56:08;;;;;;;4.47;1.87;;;17.70;69.80;;;20.64;45.75;102134.72;4940695;29;20213;-65
2023/09/14 03:58:36;;;;;;;2.57;1.97;;;17.80;70.10;;;20.69;45.02;102140.28;4923897;29;20250;-65
2023/09/14 04:01:04;;;;;;;4.83;2.00;;;17.80;69.40;;;20.72;44.77;102129.16;4921208;29;20217;-65
2023/09/14 04:03:31;;;;;;;3.40;1.67;;;17.80;69.40;;;20.73;45.24;102133.47;4926939;29;20655;-65
2023/09/14 04:05:58;;;;;;;3.70;1.90;;;17.80;69.40;;;20.73;45.60;102141.50;4940040;29;20600;-65
2023/09/14 04:08:26;;;;;;;4.93;1.83;;;17.90;69.70;;;20.76;45.52;102135.72;4939953;29;20499;-68
2023/09/14 04:10:53;;;;;;;5.13;2.03;;;17.90;70.10;;;20.80;45.55;102137.00;4939711;29;20226;-64
2023/09/14 04:13:29;;;;;;;3.33;1.77;;;18.00;69.80;;;20.81;45.69;102135.94;4940053;29;20655;-66
2023/09/14 04:15:58;;;;;;;5.27;1.70;;;18.10;69.90;;;20.88;45.51;102139.44;4940556;29;20246;-64
2023/09/14 04:18:27;;;;;;;2.80;2.10;;;18.10;69.10;;;20.93;45.56;102142.31;4939438;29;20212;-64
2023/09/14 04:20:55;;;;;;;4.70;1.80;;;18.10;69.60;;;20.94;45.18;102135.94;4940325;29;20193;-64
2023/09/14 04:23:22;;;;;;;4.80;1.80;;;18.10;69.70;;;20.93;45.65;102136.97;4940499;29;20202;-63
2023/09/14 04:25:49;;;;;;;3.53;2.00;;;18.20;70.40;;;20.84;45.62;102139.03;4934565;29;20199;-66
2023/09/14 04:28:18;;;;;;;4.43;1.80;;;18.10;70.00;;;20.69;45.65;102145.63;4920836;29;20247;-65
2023/09/14 04:30:48;;;;;;;3.57;1.97;;;18.10;70.10;;;20.54;46.72;102147.69;4921439;29;20644;-65
2023/09/14 04:33:17;;;;;;;5.83;2.97;;;17.90;70.70;;;20.47;46.97;102152.19;4939939;29;20671;-65
2023/09/14 04:35:46;;;;;;;5.33;2.10;;;17.80;71.90;;;20.43;46.89;102156.31;4939552;29;20198;-64
2023/09/14 04:38:13;;;;;;;8.07;3.63;;;17.80;71.90;;;20.39;47.28;102147.06;4938232;29;20248;-65
2023/09/14 04:40:43;;;;;;;3.63;1.93;;;17.70;72.20;;;20.33;47.20;102163.91;4939184;29;20225;-64
2023/09/14 04:43:10;;;;;;;4.10;1.87;;;17.70;72.10;;;20.25;47.74;102171.09;4939408;29;20253;-63
2023/09/14 04:45:37;;;;;;;6.03;2.23;;;17.60;72.50;;;20.22;48.31;102165.34;4933526;29;20198;-65
2023/09/14 04:48:06;;;;;;;4.80;1.87;;;17.50;73.50;;;20.23;47.58;102173.16;4939392;29;20257;-64
2023/09/14 04:50:33;;;;;;;5.80;2.23;;;17.60;73.20;;;20.23;48.15;102170.47;4939263;29;20636;-65
2023/09/14 04:53:03;;;;;;;4.87;2.40;;;17.50;73.30;;;20.22;48.47;102176.88;4939563;29;20202;-64
2023/09/14 04:55:29;;;;;;;7.20;2.17;;;17.50;74.00;;;20.24;48.00;102169.47;4939190;29;20617;-64
2023/09/14 04:57:56;;;;;;;2.97;2.00;;;17.40;73.80;;;20.28;48.05;102179.75;4939333;29;20195;-67
2023/09/14 05:00:23;;;;;;;5.40;2.17;;;17.50;74.30;;;20.34;47.78;102176.25;4937633;29;20765;-65
2023/09/14 05:02:51;;;;;;;4.43;2.27;;;17.50;74.00;;;20.36;47.65;102172.38;4939077;29;20202;-65
2023/09/14 05:05:18;;;;;;;3.20;2.10;;;17.50;73.60;;;20.36;47.54;102171.53;4939178;29;20294;-66
2023/09/14 05:07:45;;;;;;;4.53;2.00;;;17.50;73.30;;;20.34;47.54;102181.63;4939629;29;20216;-65
2023/09/14 05:10:13;;;;;;;3.83;2.37;;;17.50;73.50;;;20.34;47.62;102178.94;4937510;29;20667;-64
2023/09/14 05:12:40;;;;;;;2.90;2.03;;;17.50;73.70;;;20.34;47.82;102185.13;4938730;29;20206;-65
2023/09/14 05:15:08;;;;;;;4.87;2.00;;;17.50;73.90;;;20.39;48.36;102181.84;4919906;29;20226;-66
2023/09/14 05:17:35;;;;;;;3.33;2.47;;;17.50;73.80;;;20.40;48.14;102195.00;4920199;29;20195;-66
2023/09/14 05:20:07;;;;;;;3.37;2.47;;;17.50;73.90;;;20.45;47.63;102195.22;4938144;29;20232;-64
2023/09/14 05:22:34;;;;;;;6.37;2.40;;;17.60;74.00;;;20.47;47.75;102189.66;4938605;29;20210;-65
2023/09/14 05:25:03;;;;;;;8.17;2.43;;;17.60;73.80;;;20.50;48.14;102189.25;4935381;29;20199;-65
2023/09/14 05:27:36;;;;;;;3.67;2.30;;;17.60;73.90;;;20.54;47.98;102187.84;4929591;29;20261;-65
2023/09/14 05:30:05;;;;;;;5.70;2.20;;;17.70;73.80;;;20.59;47.24;102190.69;4938021;29;20315;-66
2023/09/14 05:32:32;;;;;;;5.90;2.33;;;17.70;73.50;;;20.61;47.97;102194.00;4935440;29;20198;-65
2023/09/14 05:34:59;;;;;;;5.67;1.97;;;17.70;73.70;;;20.63;47.26;102183.91;4919607;29;20199;-65
2023/09/14 05:37:27;;;;;;;3.47;1.97;;;17.80;73.20;;;20.62;47.19;102190.28;4918464;29;20715;-65
2023/09/14 05:39:54;;;;;;;2.60;2.07;;;17.80;73.10;;;20.64;47.74;102196.25;4918548;29;20211;-65
2023/09/14 05:42:22;;;;;;;4.50;1.90;;;17.80;73.20;;;20.64;47.12;102191.72;4918776;29;20636;-66
2023/09/14 05:44:51;;;;;;;4.77;2.03;;;17.80;73.10;;;20.65;47.71;102195.25;4918823;29;20207;-65
2023/09/14 05:47:18;;;;;;;5.40;3.07;;;17.80;73.30;;;20.64;47.39;102202.44;4919522;29;20279;-65
2023/09/14 05:49:45;;;;;;;4.97;2.60;;;17.80;73.20;;;20.66;47.71;102202.22;4937424;29;20222;-65
2023/09/14 05:52:12;;;;;;;6.50;2.13;;;17.80;73.10;;;20.68;47.10;102205.53;4937956;29;20569;-65
2023/09/14 05:54:39;;;;;;;8.83;3.00;;;17.80;72.70;;;20.63;47.17;102208.00;4937746;29;20559;-65
2023/09/14 05:57:07;;;;;;;6.80;3.53;;;17.80;72.10;;;20.57;47.04;102206.13;4937338;29;20202;-66
2023/09/14 05:59:34;;;;;;;9.73;4.17;;;17.80;72.90;;;20.59;47.44;102204.06;4936654;29;20214;-64
2023/09/14 06:02:04;;;;;;;4.97;2.90;;;17.80;73.40;;;20.67;47.38;102203.88;4937517;29;20194;-67
2023/09/14 06:04:31;;;;;;;8.40;2.83;;;17.80;72.80;;;20.71;47.66;102205.94;4937871;29;20561;-64
2023/09/14 06:06:58;;;;;;;6.30;2.70;;;17.80;73.20;;;20.76;47.21;102205.31;4937528;29;20242;-66
2023/09/14 06:09:26;;;;;;;4.13;2.00;;;17.90;72.90;;;20.81;46.91;102202.84;4936607;29;20305;-65
2023/09/14 06:11:55;;;;;;;4.30;2.70;;;17.90;72.60;;;20.82;47.16;102204.53;4935912;29;20229;-65
2023/09/14 06:14:22;;;;;;;6.73;3.53;;;18.00;73.00;;;20.85;47.33;102198.72;4936947;29;20663;-64
2023/09/14 06:16:50;;;;;;;5.20;2.70;;;18.00;73.50;;;20.85;47.26;102207.59;4937121;29;20624;-67
2023/09/14 06:19:18;;;;;;;3.97;2.13;;;18.00;72.70;;;20.84;47.10;102213.16;4936976;29;20224;-65
2023/09/14 06:21:45;;;;;;;4.83;2.87;;;18.00;72.50;;;20.83;46.91;102216.84;4936886;29;20218;-65
2023/09/14 06:24:12;;;;;;;4.73;2.50;;;18.00;72.70;;;20.80;46.97;102215.41;4919683;29;20202;-65
2023/09/14 06:26:39;;;;;;;5.60;2.53;;;17.90;72.60;;;20.75;47.44;102214.41;4934344;29;20248;-66
2023/09/14 06:29:06;;;;;;;5.50;2.20;;;17.90;72.80;;;20.72;47.05;102221.00;4937037;29;20217;-66
2023/09/14 06:31:33;;;;;;;6.27;2.90;;;17.80;73.10;;;20.68;47.19;102225.06;4937040;29;20717;-66
2023/09/14 06:34:00;;;;;;;4.47;1.83;;;17.80;73.20;;;20.63;47.36;102216.03;4922426;29;20232;-66
2023/09/14 06:36:30;;;;;;;2.90;2.10;;;17.80;73.60;;;20.65;48.18;102224.69;4921100;29;20217;-66
2023/09/14 06:38:57;;;;;;;3.90;2.37;;;17.80;74.20;;;20.73;48.08;102222.63;4925268;29;20214;-66
2023/09/14 06:41:24;;;;;;;5.27;2.10;;;17.80;74.60;;;20.85;47.44;102228.19;4937246;29;20186;-66
2023/09/14 06:43:51;;;;;;;4.33;2.57;;;17.80;74.60;;;20.95;48.04;102225.91;4936903;29;20272;-66
2023/09/14 06:46:18;;;;;;;4.63;2.33;;;17.90;74.50;;;21.04;47.81;102227.34;4936715;29;20212;-66
2023/09/14 06:48:45;;;;;;;4.40;2.97;;;18.00;74.30;;;21.13;47.28;102228.84;4924739;29;20696;-64
2023/09/14 06:51:12;;;;;;;3.50;2.37;;;18.00;74.30;;;21.23;46.99;102233.75;4927338;29;20241;-65
2023/09/14 06:53:40;;;;;;;5.83;2.40;;;18.20;74.00;;;21.29;47.06;102233.78;4936903;29;20514;-65
2023/09/14 06:56:09;;;;;;;6.57;2.63;;;18.20;73.80;;;21.31;46.64;102234.38;4936424;29;20220;-65
2023/09/14 06:58:37;;;;;;;6.07;2.23;;;18.30;73.40;;;21.32;46.74;102224.50;4936336;29;20276;-66
2023/09/14 07:01:05;;;;;;;6.53;4.27;;;18.30;72.90;;;21.33;46.38;102235.00;4936335;29;20612;-66
2023/09/14 07:03:34;;;;;;;8.10;2.77;;;18.40;72.80;;;21.34;46.34;102236.66;4936483;29;20280;-64
2023/09/14 07:06:05;;;;;;;5.93;2.50;;;18.40;72.40;;;21.29;46.17;102239.13;4935613;29;20370;-65
2023/09/14 07:08:32;;;;;;;8.17;2.67;;;18.40;72.10;;;21.29;45.93;102239.13;4935540;29;20723;-66
2023/09/14 07:11:00;;;;;;;3.80;2.70;;;18.40;72.00;;;21.23;46.55;102239.94;4935400;29;20261;-65
2023/09/14 07:13:27;;;;;;;3.97;2.03;;;18.30;72.30;;;21.23;46.85;102242.63;4935527;29;20367;-67
2023/09/14 07:15:54;;;;;;;7.07;2.77;;;18.30;72.50;;;21.31;46.86;102242.41;4935178;29;20266;-66
2023/09/14 07:18:26;;;;;;;7.30;2.47;;;18.40;73.10;;;21.40;46.80;102246.53;4935304;29;20260;-66
2023/09/14 07:20:55;;;;;;;7.47;2.77;;;18.40;72.60;;;21.43;46.37;102251.47;4923500;29;20527;-66
2023/09/14 07:23:22;;;;;;;4.03;2.67;;;18.50;72.80;;;21.47;46.36;102258.06;4935223;29;20208;-65
2023/09/14 07:25:51;;;;;;;5.73;2.40;;;18.50;72.30;;;21.45;45.92;102254.75;4935699;29;20241;-65
2023/09/14 07:28:21;;;;;;;5.10;1.90;;;18.50;72.30;;;21.47;46.20;102263.41;4935432;29;20281;-64
2023/09/14 07:30:50;;;;;;;5.37;2.70;;;18.50;71.90;;;21.48;45.46;102258.88;4934614;29;20284;-66
2023/09/14 07:33:18;;;;;;;6.57;2.50;;;18.50;71.30;;;21.48;45.83;102254.34;4930947;29;20194;-64
2023/09/14 07:35:45;;;;;;;5.87;2.50;;;18.60;71.90;;;21.55;45.90;102259.69;4924191;29;20206;-64
2023/09/14 07:38:13;;;;;;;3.50;2.47;;;18.60;72.00;;;21.66;46.19;102267.06;4935575;29;20200;-66
2023/09/14 07:40:42;;;;;;;5.53;2.43;;;18.60;72.20;;;21.79;45.84;102266.22;4934747;29;20217;-64
2023/09/14 07:43:09;;;;;;;4.33;2.50;;;18.70;72.30;;;21.89;45.88;102277.38;4935484;29;20589;-66
2023/09/14 07:45:38;;;;;;;3.30;2.30;;;18.70;71.80;;;21.94;45.10;102274.88;4933619;29;20635;-65
2023/09/14 07:48:07;;;;;;;3.50;2.27;;;18.80;71.50;;;22.00;45.34;102282.06;4935380;29;20202;-65
2023/09/14 07:50:36;;;;;;;6.50;2.37;;;18.90;71.40;;;22.03;45.07;102284.34;4935747;29;20734;-64
2023/09/14 07:53:04;;;;;;;7.70;2.80;;;19.00;71.00;;;22.03;44.87;102284.34;4934310;29;20264;-66
2023/09/14 07:55:31;;;;;;;4.07;2.23;;;19.00;70.60;;;22.05;45.04;102285.78;4933715;29;20198;-65
2023/09/14 07:57:58;;;;;;;4.70;2.30;;;19.00;70.50;;;22.11;45.09;102282.22;4934866;29;20201;-65
2023/09/14 08:00:26;;;;;;;5.97;2.43;;;19.00;70.60;;;22.15;44.39;102282.66;4935189;29;20252;-65
2023/09/14 08:02:54;;;;;;;4.10;2.07;;;19.10;70.50;;;22.16;44.11;102278.91;4933609;29;20221;-66
2023/09/14 08:05:21;;;;;;;4.33;2.30;;;19.10;70.20;;;22.17;44.67;102291.31;4934728;29;20205;-65
2023/09/14 08:07:48;;;;;;;4.30;2.27;;;19.20;70.30;;;22.20;44.68;102289.00;4934927;29;20658;-65
2023/09/14 08:10:15;;;;;;;3.77;1.90;;;19.20;70.30;;;22.23;44.50;102285.91;4934802;29;20224;-62
2023/09/14 08:12:43;;;;;;;4.73;2.47;;;19.20;70.10;;;22.31;44.44;102298.25;4935625;29;20220;-65
2023/09/14 08:15:12;;;;;;;6.67;2.60;;;19.30;70.40;;;22.45;44.33;102293.63;4918838;29;20199;-64
2023/09/14 08:17:39;;;;;;;4.90;2.53;;;19.30;70.10;;;22.62;44.16;102287.59;4932285;29;20202;-65
2023/09/14 08:20:09;;;;;;;4.40;2.50;;;19.40;70.10;;;22.99;43.94;102290.44;4917869;29;20251;-65
2023/09/14 08:22:36;;;;;;;4.93;2.30;;;19.60;71.10;;;23.33;41.80;102287.25;4935069;29;20204;-65
2023/09/14 08:25:06;;;;;;;6.03;2.30;;;19.80;67.70;;;23.46;41.43;102281.81;4935140;29;20226;-64
2023/09/14 08:27:34;;;;;;;6.83;2.60;;;20.00;67.30;;;23.62;41.47;102278.53;4934700;29;20204;-65
2023/09/14 08:30:02;;;;;;;2.77;2.07;;;20.10;67.30;;;23.84;40.96;102287.81;4930755;29;20226;-65
2023/09/14 08:32:30;;;;;;;3.83;2.00;;;20.30;65.90;;;24.01;39.79;102280.75;4926704;29;20218;-64
2023/09/14 08:34:58;;;;;;;8.17;2.03;;;20.40;64.50;;;24.12;39.75;102280.06;4936343;29;20198;-63
2023/09/14 08:37:26;;;;;;;3.60;1.77;;;20.60;65.10;;;24.32;40.13;102289.75;4937807;29;20228;-64
2023/09/14 08:39:54;;;;;;;3.43;2.00;;;20.70;65.50;;;24.47;39.81;102295.53;4937243;29;20225;-64
2023/09/14 08:42:24;;;;;;;2.83;1.93;;;20.90;64.40;;;24.60;39.66;102295.34;4938444;29;20627;-63
2023/09/14 08:44:53;;;;;;;4.10;1.57;;;21.00;64.30;;;24.79;38.38;102291.59;4933132;29;20202;-63
2023/09/14 08:47:22;;;;;;;4.07;1.60;;;21.20;63.00;;;24.98;38.13;102298.53;4937441;29;20285;-64
2023/09/14 08:49:54;;;;;;;2.17;1.57;;;21.30;61.50;;;25.34;37.48;102289.44;4935136;29;20230;-68
2023/09/14 08:52:23;;;;;;;3.37;1.70;;;21.40;61.50;;;25.85;35.97;102294.09;4935544;29;20206;-66
2023/09/14 08:54:55;;;;;;;6.03;1.97;;;21.70;60.20;;;26.13;34.93;102291.47;4920238;29;20580;-67
2023/09/14 08:57:29;;;;;;;8.43;4.63;;;21.90;58.20;;;26.36;35.12;102296.81;4932883;29;20208;-65
2023/09/14 09:00:01;;;;;;;2.93;1.70;;;22.20;59.20;;;26.53;35.48;102294.16;4937372;29;20218;-65
2023/09/14 09:02:32;;;;;;;2.37;1.17;;;22.40;58.20;;;26.56;33.96;102291.78;4936081;29;20297;-66
2023/09/14 09:04:59;;;;;;;3.33;1.40;;;22.60;56.80;;;26.85;33.21;102295.31;4936808;29;20198;-65
2023/09/14 09:07:27;;;;;;;2.93;1.77;;;22.80;54.90;;;27.41;32.66;102283.50;4933954;29;20581;-65
2023/09/14 09:09:55;;;;;;;6.27;2.27;;;23.00;55.70;;;27.98;31.42;102284.03;4935265;29;20221;-65
2023/09/14 09:12:23;;;;;;;4.40;1.97;;;23.30;53.50;;;28.76;30.39;102280.84;4937250;29;20222;-65
2023/09/14 09:14:52;;;;;;;5.60;2.87;;;23.70;52.80;;;29.52;28.37;102284.16;4936645;29;20679;-65
2023/09/14 09:17:19;;;;;;;3.97;2.20;;;24.10;50.80;;;30.06;28.40;102280.91;4935877;29;20194;-64
2023/09/14 09:19:49;;;;;;;2.13;1.83;;;24.60;50.10;;;30.34;28.11;102270.66;4935841;29;20252;-65
2023/09/14 09:22:17;;;;;;;2.30;2.03;;;25.00;49.80;;;30.34;28.29;102276.94;4937856;29;20186;-65
2023/09/14 09:24:45;;;;;;;4.20;1.77;;;25.30;49.20;;;30.30;26.87;102286.69;4934968;29;20201;-65
2023/09/14 09:27:26;;;;;;;2.57;1.40;;;25.50;46.00;;;30.15;26.45;102283.91;4934691;29;20213;-65
2023/09/14 09:29:58;;;;;;;4.40;2.20;;;25.60;43.60;;;30.06;26.89;102285.53;4931198;29;20276;-65
2023/09/14 09:32:25;;;;;;;2.97;1.60;;;25.60;44.40;;;30.03;26.40;102276.00;4936805;29;20667;-64
2023/09/14 09:34:53;;;;;;;3.17;1.20;;;25.60;43.20;;;29.74;26.04;102276.69;4927239;29;20273;-64
2023/09/14 09:37:23;;;;;;;2.80;1.90;;;25.60;42.40;;;29.32;26.90;102274.81;4936147;29;20304;-65
2023/09/14 09:39:51;;;;;;;1.83;1.37;;;25.40;42.60;;;28.87;26.32;102279.03;4936811;29;20224;-65
2023/09/14 09:42:20;;;;;;;3.23;1.73;;;25.20;41.30;;;28.41;26.61;102280.50;4923295;29;20637;-66
2023/09/14 09:44:48;;;;;;;6.90;2.40;;;24.90;41.40;;;28.01;27.66;102280.84;4926734;29;20232;-65
2023/09/14 09:47:16;;;;;;;3.57;1.93;;;24.60;42.40;;;27.67;28.39;102277.38;4935572;29;20201;-63
2023/09/14 09:49:44;;;;;;;2.37;1.40;;;24.40;44.00;;;27.41;28.68;102283.50;4933163;29;20257;-64
2023/09/14 09:52:12;;;;;;;4.33;1.93;;;24.10;43.30;;;27.18;28.44;102284.50;4937787;29;20248;-65
2023/09/14 09:54:40;;;;;;;4.17;2.50;;;23.90;43.60;;;26.98;29.37;102280.66;4936681;29;20578;-65
2023/09/14 09:57:08;;;;;;;4.17;2.20;;;23.70;43.90;;;26.80;29.34;102287.94;4933945;29;20267;-65
2023/09/14 09:59:35;;;;;;;3.77;2.23;;;23.50;44.80;;;26.70;30.16;102284.19;4928135;29;20222;-65
2023/09/14 10:02:03;;;;;;;3.60;1.90;;;23.40;45.70;;;26.60;29.15;102279.41;4935136;29;20201;-64
2023/09/14 10:04:30;;;;;;;2.87;1.80;;;23.30;44.20;;;26.45;29.50;102284.56;4935475;29;20202;-65
2023/09/14 10:06:59;;;;;;;6.60;4.97;;;23.20;44.50;;;26.31;29.34;102282.41;4937241;29;20249;-65
2023/09/14 10:09:36;;;;;;;2.17;1.50;;;23.10;44.70;;;26.19;30.11;102280.56;4936653;29;20261;-64
2023/09/14 10:12:06;;;;;;;3.53;1.80;;;23.00;45.40;;;26.13;30.00;102275.28;4928709;29;20209;-65
2023/09/14 10:14:38;;;;;;;4.13;1.80;;;22.90;45.20;;;26.07;30.44;102281.63;4917773;29;20551;-65
2023/09/14 10:17:11;;;;;;;4.83;1.83;;;22.80;45.70;;;26.02;29.92;102278.81;4931190;29;20191;-65